Terminal Aerodrome Forecast
Issued by NWS

Home | Current Version | Previous Version | Text Only | Print | Product List | Glossary On
Versions: 1 2 3 4 5 6 7 8 9 10 11 12 13 14 15 16 17 18 19 20 21 22
000
FTUS41 KRLX 281120
TAFCKB
TAF
KCKB 281120Z 2812/2912 00000KT P6SM FEW080
     FM290200 00000KT 6SM BR FEW080
     FM290300 00000KT 4SM BR FEW080
     FM290800 00000KT 3SM BR FEW080
     FM290900 00000KT 2SM BR FEW080
     FM291100 00000KT 3SM BR SCT040=

USA.gov is the U.S. government's official web portal to all federal, state and local government web resources and services.